AUA684 EFHK-LOWW
Flight info
| Callsign | AUA684 |
|---|---|
| Flight time | 2h 16m |
| Altitude | 34000 |
| Route | KOIVU Y123 LARTI DCT LUTAL DCT BERIL DCT BOKSU DCT ASBIM DCT BAVOK DCT MIKOV MIKOV8W |
| Aircraft | MD82/M-SDFGIJ1RWY/S |
Departure
| Time | 2026-04-25 15:09 |
|---|---|
| Airport | Helsinki Vantaa Airport (EFHK) |
Arrival
| Time | 2026-04-25 17:26 |
|---|---|
| Airport | Vienna International Airport (LOWW) |
| Time | Latitude | Longitude | Altitude | Speed | Heading |
|---|---|---|---|---|---|
| 2026-04-25 14:37 | 60.31987 | 24.96912 | 172 ft | 0 kts | 217° |
| 2026-04-25 14:52 | 60.31989 | 24.96915 | 172 ft | 3 kts | 217° |
| 2026-04-25 14:53 | 60.32011 | 24.96948 | 172 ft | 3 kts | 217° |
| 2026-04-25 14:53 | 60.32027 | 24.96974 | 172 ft | 3 kts | 236° |
| 2026-04-25 14:53 | 60.32033 | 24.97013 | 173 ft | 3 kts | 280° |
| 2026-04-25 14:53 | 60.32037 | 24.96998 | 173 ft | 3 kts | 299° |
| 2026-04-25 14:54 | 60.32039 | 24.96992 | 173 ft | 0 kts | 307° |
| 2026-04-25 14:56 | 60.32040 | 24.96991 | 172 ft | 0 kts | 308° |
| 2026-04-25 14:56 | 60.32046 | 24.96976 | 172 ft | 2 kts | 311° |
| 2026-04-25 14:56 | 60.32064 | 24.96943 | 172 ft | 5 kts | 321° |
| 2026-04-25 14:56 | 60.32095 | 24.96900 | 171 ft | 6 kts | 330° |
| 2026-04-25 14:57 | 60.32137 | 24.96856 | 171 ft | 3 kts | 333° |
| 2026-04-25 14:57 | 60.32160 | 24.96832 | 170 ft | 5 kts | 331° |
| 2026-04-25 14:57 | 60.32194 | 24.96794 | 170 ft | 7 kts | 330° |
| 2026-04-25 14:57 | 60.32215 | 24.96769 | 169 ft | 1 kts | 329° |
| 2026-04-25 14:58 | 60.32229 | 24.96753 | 169 ft | 3 kts | 329° |
| 2026-04-25 14:58 | 60.32256 | 24.96720 | 168 ft | 6 kts | 329° |
| 2026-04-25 14:58 | 60.32296 | 24.96671 | 167 ft | 8 kts | 329° |
| 2026-04-25 14:58 | 60.32342 | 24.96616 | 167 ft | 8 kts | 329° |
| 2026-04-25 14:59 | 60.32394 | 24.96554 | 166 ft | 9 kts | 329° |
| 2026-04-25 14:59 | 60.32455 | 24.96482 | 165 ft | 11 kts | 330° |
| 2026-04-25 14:59 | 60.32480 | 24.96454 | 165 ft | 3 kts | 332° |
| 2026-04-25 14:59 | 60.32496 | 24.96437 | 165 ft | 2 kts | 332° |
| 2026-04-25 15:00 | 60.32505 | 24.96427 | 165 ft | 1 kts | 332° |
| 2026-04-25 15:00 | 60.32506 | 24.96426 | 166 ft | 0 kts | 332° |
| 2026-04-25 15:02 | 60.32526 | 24.96405 | 166 ft | 9 kts | 332° |
| 2026-04-25 15:02 | 60.32591 | 24.96327 | 165 ft | 14 kts | 327° |
| 2026-04-25 15:03 | 60.32687 | 24.96215 | 162 ft | 9 kts | 331° |
| 2026-04-25 15:03 | 60.32762 | 24.96130 | 159 ft | 10 kts | 330° |
| 2026-04-25 15:03 | 60.32825 | 24.96058 | 156 ft | 12 kts | 329° |
| 2026-04-25 15:03 | 60.32890 | 24.95980 | 154 ft | 9 kts | 330° |
| 2026-04-25 15:04 | 60.32947 | 24.95913 | 153 ft | 9 kts | 330° |
| 2026-04-25 15:04 | 60.33001 | 24.95849 | 154 ft | 9 kts | 330° |
| 2026-04-25 15:04 | 60.33049 | 24.95793 | 156 ft | 7 kts | 328° |
| 2026-04-25 15:04 | 60.33085 | 24.95741 | 157 ft | 7 kts | 321° |
| 2026-04-25 15:05 | 60.33137 | 24.95648 | 161 ft | 10 kts | 317° |
| 2026-04-25 15:05 | 60.33178 | 24.95567 | 164 ft | 6 kts | 312° |
| 2026-04-25 15:05 | 60.33200 | 24.95502 | 166 ft | 7 kts | 294° |
| 2026-04-25 15:06 | 60.33176 | 24.95322 | 173 ft | 5 kts | 232° |
| 2026-04-25 15:06 | 60.33142 | 24.95244 | 175 ft | 9 kts | 231° |
| 2026-04-25 15:06 | 60.33112 | 24.95118 | 180 ft | 10 kts | 257° |
| 2026-04-25 15:06 | 60.33109 | 24.94969 | 193 ft | 8 kts | 274° |
| 2026-04-25 15:07 | 60.33113 | 24.94836 | 184 ft | 11 kts | 272° |
| 2026-04-25 15:07 | 60.33115 | 24.94675 | 191 ft | 11 kts | 271° |
| 2026-04-25 15:07 | 60.33118 | 24.94541 | 194 ft | 10 kts | 275° |
| 2026-04-25 15:07 | 60.33110 | 24.94392 | 204 ft | 5 kts | 239° |
| 2026-04-25 15:08 | 60.33107 | 24.94380 | 202 ft | 2 kts | 236° |
| 2026-04-25 15:08 | 60.33104 | 24.94372 | 200 ft | 2 kts | 235° |
| 2026-04-25 15:08 | 60.33001 | 24.94131 | 203 ft | 49 kts | 227° |
| 2026-04-25 15:08 | 60.32626 | 24.93302 | 182 ft | 108 kts | 228° |
| 2026-04-25 15:09 | 60.32000 | 24.91931 | 221 ft | 151 kts | 228° |
| 2026-04-25 15:09 | 60.31233 | 24.90377 | 709 ft | 161 kts | 227° |
| 2026-04-25 15:09 | 60.29814 | 24.86675 | 1965 ft | 172 kts | 246° |
| 2026-04-25 15:10 | 60.29431 | 24.84336 | 2455 ft | 179 kts | 265° |
| 2026-04-25 15:10 | 60.29408 | 24.81779 | 3081 ft | 188 kts | 274° |
| 2026-04-25 15:10 | 60.29092 | 24.77021 | 5060 ft | 161 kts | 254° |
| 2026-04-25 15:11 | 60.28711 | 24.74822 | 5472 ft | 183 kts | 254° |
| 2026-04-25 15:11 | 60.28284 | 24.72251 | 5842 ft | 199 kts | 254° |
| 2026-04-25 15:11 | 60.27830 | 24.69474 | 6173 ft | 216 kts | 256° |
| 2026-04-25 15:12 | 60.26981 | 24.63217 | 6777 ft | 251 kts | 256° |
| 2026-04-25 15:12 | 60.26468 | 24.59771 | 7284 ft | 257 kts | 254° |
| 2026-04-25 15:12 | 60.25904 | 24.56339 | 7916 ft | 260 kts | 252° |
| 2026-04-25 15:12 | 60.25703 | 24.55176 | 8173 ft | 259 kts | 252° |
| 2026-04-25 15:13 | 60.24554 | 24.49528 | 9134 ft | 271 kts | 236° |
| 2026-04-25 15:13 | 60.21149 | 24.45520 | 9913 ft | 315 kts | 200° |
| 2026-04-25 15:13 | 60.18991 | 24.44157 | 10252 ft | 333 kts | 200° |
| 2026-04-25 15:14 | 60.16767 | 24.42786 | 11033 ft | 335 kts | 199° |
| 2026-04-25 15:14 | 60.14534 | 24.41427 | 11900 ft | 336 kts | 200° |
| 2026-04-25 15:14 | 60.12272 | 24.40206 | 12780 ft | 340 kts | 191° |
| 2026-04-25 15:14 | 60.09887 | 24.40469 | 13517 ft | 352 kts | 167° |
| 2026-04-25 15:15 | 60.07611 | 24.42391 | 14290 ft | 358 kts | 156° |
| 2026-04-25 15:15 | 60.05416 | 24.44703 | 14985 ft | 363 kts | 155° |
| 2026-04-25 15:15 | 60.03184 | 24.47130 | 15699 ft | 367 kts | 155° |
| 2026-04-25 15:15 | 60.00935 | 24.49607 | 16463 ft | 370 kts | 155° |
| 2026-04-25 15:16 | 59.98671 | 24.52092 | 17203 ft | 373 kts | 155° |
| 2026-04-25 15:16 | 59.96375 | 24.54558 | 17813 ft | 377 kts | 156° |
| 2026-04-25 15:16 | 59.91731 | 24.59383 | 19034 ft | 381 kts | 158° |
| 2026-04-25 15:17 | 59.86942 | 24.64225 | 20142 ft | 389 kts | 160° |
| 2026-04-25 15:17 | 59.84398 | 24.65821 | 20730 ft | 381 kts | 179° |
| 2026-04-25 15:17 | 59.81787 | 24.65587 | 21322 ft | 374 kts | 194° |
| 2026-04-25 15:18 | 59.79238 | 24.64486 | 21875 ft | 376 kts | 197° |
| 2026-04-25 15:18 | 59.74116 | 24.61908 | 22937 ft | 382 kts | 198° |
| 2026-04-25 15:18 | 59.71534 | 24.60565 | 23395 ft | 386 kts | 198° |
| 2026-04-25 15:19 | 59.68923 | 24.59230 | 23794 ft | 390 kts | 198° |
| 2026-04-25 15:19 | 59.68069 | 24.58802 | 23916 ft | 391 kts | 198° |
| 2026-04-25 15:19 | 59.63588 | 24.56754 | 24524 ft | 399 kts | 195° |
| 2026-04-25 15:19 | 59.60854 | 24.55681 | 24887 ft | 402 kts | 195° |
| 2026-04-25 15:20 | 59.58093 | 24.54649 | 25234 ft | 406 kts | 195° |
| 2026-04-25 15:20 | 59.55305 | 24.53611 | 25562 ft | 410 kts | 195° |
| 2026-04-25 15:20 | 59.52496 | 24.52543 | 25899 ft | 413 kts | 195° |
| 2026-04-25 15:20 | 59.49705 | 24.51464 | 26231 ft | 416 kts | 196° |
| 2026-04-25 15:21 | 59.46858 | 24.50349 | 26578 ft | 419 kts | 196° |
| 2026-04-25 15:21 | 59.43990 | 24.49219 | 26885 ft | 422 kts | 196° |
| 2026-04-25 15:21 | 59.41099 | 24.48078 | 27202 ft | 425 kts | 196° |
| 2026-04-25 15:21 | 59.38185 | 24.46930 | 27495 ft | 429 kts | 196° |
| 2026-04-25 15:22 | 59.35250 | 24.45777 | 27803 ft | 432 kts | 196° |
| 2026-04-25 15:22 | 59.32299 | 24.44624 | 28150 ft | 433 kts | 196° |
| 2026-04-25 15:22 | 59.29341 | 24.43474 | 28592 ft | 433 kts | 196° |
| 2026-04-25 15:22 | 59.26388 | 24.42330 | 29030 ft | 433 kts | 196° |
| 2026-04-25 15:23 | 59.23437 | 24.41191 | 29438 ft | 432 kts | 196° |
| 2026-04-25 15:23 | 59.20486 | 24.40057 | 29754 ft | 432 kts | 196° |
| 2026-04-25 15:23 | 59.17530 | 24.38919 | 30008 ft | 434 kts | 196° |
| 2026-04-25 15:23 | 59.14561 | 24.37774 | 30270 ft | 435 kts | 196° |
| 2026-04-25 15:24 | 59.11588 | 24.36627 | 30537 ft | 435 kts | 196° |
| 2026-04-25 15:24 | 59.08628 | 24.35492 | 30908 ft | 433 kts | 196° |
| 2026-04-25 15:24 | 59.05672 | 24.34356 | 31181 ft | 433 kts | 196° |
| 2026-04-25 15:24 | 59.04715 | 24.33987 | 31246 ft | 434 kts | 196° |
| 2026-04-25 15:25 | 58.99732 | 24.32080 | 31613 ft | 436 kts | 196° |
| 2026-04-25 15:25 | 58.96758 | 24.30944 | 31888 ft | 436 kts | 196° |
| 2026-04-25 15:25 | 58.93816 | 24.29818 | 32117 ft | 437 kts | 196° |
| 2026-04-25 15:25 | 58.90794 | 24.28662 | 32338 ft | 438 kts | 196° |
| 2026-04-25 15:26 | 58.87802 | 24.27521 | 32580 ft | 438 kts | 196° |
| 2026-04-25 15:26 | 58.84853 | 24.26401 | 32803 ft | 438 kts | 195° |
| 2026-04-25 15:26 | 58.81859 | 24.25272 | 33043 ft | 438 kts | 195° |
| 2026-04-25 15:26 | 58.78864 | 24.24150 | 33257 ft | 439 kts | 195° |
| 2026-04-25 15:27 | 58.72823 | 24.21888 | 33377 ft | 444 kts | 195° |
| 2026-04-25 15:28 | 58.63748 | 24.18493 | 33427 ft | 441 kts | 196° |
| 2026-04-25 15:28 | 58.57738 | 24.16242 | 33441 ft | 439 kts | 195° |
| 2026-04-25 15:29 | 58.51742 | 24.14005 | 33440 ft | 439 kts | 195° |
| 2026-04-25 15:29 | 58.45731 | 24.11771 | 33426 ft | 441 kts | 196° |
| 2026-04-25 15:30 | 58.39704 | 24.09563 | 33450 ft | 441 kts | 196° |
| 2026-04-25 15:30 | 58.33680 | 24.07353 | 33449 ft | 441 kts | 196° |
| 2026-04-25 15:31 | 58.27656 | 24.05138 | 33448 ft | 441 kts | 196° |
| 2026-04-25 15:31 | 58.21629 | 24.02928 | 33451 ft | 441 kts | 196° |
| 2026-04-25 15:32 | 58.15610 | 24.00735 | 33445 ft | 440 kts | 196° |
| 2026-04-25 15:32 | 58.09616 | 23.98560 | 33461 ft | 438 kts | 196° |
| 2026-04-25 15:33 | 58.00674 | 23.95317 | 33460 ft | 434 kts | 197° |
| 2026-04-25 15:33 | 57.94813 | 23.93157 | 33465 ft | 431 kts | 197° |
| 2026-04-25 15:34 | 57.88927 | 23.91025 | 33457 ft | 430 kts | 196° |
| 2026-04-25 15:34 | 57.84977 | 23.89728 | 33470 ft | 431 kts | 195° |
| 2026-04-25 15:35 | 57.74133 | 23.86302 | 33476 ft | 432 kts | 196° |
| 2026-04-25 15:36 | 57.65232 | 23.83368 | 33486 ft | 433 kts | 196° |
| 2026-04-25 15:36 | 57.59307 | 23.81427 | 33463 ft | 431 kts | 196° |
| 2026-04-25 15:37 | 57.53432 | 23.79513 | 33481 ft | 427 kts | 197° |
| 2026-04-25 15:37 | 57.48567 | 23.77921 | 33484 ft | 427 kts | 197° |
| 2026-04-25 15:38 | 57.42707 | 23.76022 | 33491 ft | 429 kts | 196° |
| 2026-04-25 15:38 | 57.36815 | 23.74125 | 33491 ft | 430 kts | 196° |
| 2026-04-25 15:39 | 57.30918 | 23.72241 | 33481 ft | 429 kts | 197° |
| 2026-04-25 15:39 | 57.25042 | 23.70357 | 33492 ft | 427 kts | 197° |
| 2026-04-25 15:40 | 57.20181 | 23.68793 | 33494 ft | 426 kts | 197° |
| 2026-04-25 15:40 | 57.13390 | 23.66620 | 33497 ft | 426 kts | 197° |
| 2026-04-25 15:41 | 57.07532 | 23.64755 | 33503 ft | 428 kts | 197° |
| 2026-04-25 15:41 | 57.01670 | 23.62925 | 33489 ft | 426 kts | 197° |
| 2026-04-25 15:42 | 56.95833 | 23.61091 | 33505 ft | 425 kts | 197° |
| 2026-04-25 15:42 | 56.90019 | 23.59255 | 33500 ft | 424 kts | 197° |
| 2026-04-25 15:43 | 56.89039 | 23.58945 | 33502 ft | 423 kts | 197° |
| 2026-04-25 15:44 | 56.85484 | 23.57826 | 33510 ft | 424 kts | 197° |
| 2026-04-25 15:44 | 56.79659 | 23.55998 | 33498 ft | 425 kts | 197° |
| 2026-04-25 15:45 | 56.73832 | 23.54199 | 33488 ft | 424 kts | 198° |
| 2026-04-25 15:45 | 56.69010 | 23.52700 | 33500 ft | 423 kts | 198° |
| 2026-04-25 15:46 | 56.62243 | 23.50578 | 33503 ft | 422 kts | 198° |
| 2026-04-25 15:46 | 56.56455 | 23.48765 | 33514 ft | 423 kts | 198° |
| 2026-04-25 15:47 | 56.50652 | 23.46975 | 33514 ft | 423 kts | 198° |
| 2026-04-25 15:47 | 56.44840 | 23.45200 | 33524 ft | 424 kts | 198° |
| 2026-04-25 15:48 | 56.39022 | 23.43428 | 33522 ft | 424 kts | 198° |
| 2026-04-25 15:48 | 56.33161 | 23.41861 | 33522 ft | 428 kts | 194° |
| 2026-04-25 15:49 | 56.27218 | 23.40867 | 33519 ft | 429 kts | 193° |
| 2026-04-25 15:49 | 56.21332 | 23.39902 | 33521 ft | 427 kts | 194° |
| 2026-04-25 15:50 | 56.15441 | 23.38831 | 33536 ft | 425 kts | 195° |
| 2026-04-25 15:50 | 56.09568 | 23.37703 | 33555 ft | 424 kts | 195° |
| 2026-04-25 15:51 | 56.04650 | 23.36770 | 33541 ft | 424 kts | 195° |
| 2026-04-25 15:51 | 55.97814 | 23.35484 | 33551 ft | 425 kts | 195° |
| 2026-04-25 15:52 | 55.91927 | 23.34406 | 33538 ft | 425 kts | 195° |
| 2026-04-25 15:52 | 55.86053 | 23.33329 | 33548 ft | 424 kts | 195° |
| 2026-04-25 15:53 | 55.80187 | 23.32246 | 33550 ft | 423 kts | 195° |
| 2026-04-25 15:53 | 55.74327 | 23.31169 | 33552 ft | 423 kts | 195° |
| 2026-04-25 15:54 | 55.68470 | 23.30097 | 33508 ft | 423 kts | 196° |
| 2026-04-25 15:54 | 55.62616 | 23.29043 | 33547 ft | 422 kts | 196° |
| 2026-04-25 15:55 | 55.56780 | 23.27979 | 33568 ft | 422 kts | 196° |
| 2026-04-25 15:55 | 55.50942 | 23.26917 | 33577 ft | 422 kts | 196° |
| 2026-04-25 15:56 | 55.45142 | 23.25877 | 33582 ft | 422 kts | 196° |
| 2026-04-25 15:56 | 55.39305 | 23.24836 | 33562 ft | 421 kts | 196° |
| 2026-04-25 15:57 | 55.33475 | 23.23793 | 33586 ft | 421 kts | 196° |
| 2026-04-25 15:57 | 55.27636 | 23.22744 | 33590 ft | 422 kts | 196° |
| 2026-04-25 15:58 | 55.21792 | 23.21708 | 33600 ft | 422 kts | 196° |
| 2026-04-25 15:58 | 55.15965 | 23.20675 | 33601 ft | 420 kts | 196° |
| 2026-04-25 15:59 | 55.10164 | 23.19653 | 33592 ft | 418 kts | 197° |
| 2026-04-25 15:59 | 55.04393 | 23.18634 | 33609 ft | 420 kts | 197° |
| 2026-04-25 16:00 | 55.00539 | 23.17955 | 33627 ft | 421 kts | 197° |
| 2026-04-25 16:00 | 54.92742 | 23.16588 | 33634 ft | 421 kts | 197° |
| 2026-04-25 16:01 | 54.86942 | 23.15574 | 33593 ft | 422 kts | 197° |
| 2026-04-25 16:01 | 54.81070 | 23.14554 | 33623 ft | 421 kts | 197° |
| 2026-04-25 16:02 | 54.75290 | 23.13551 | 33632 ft | 420 kts | 197° |
| 2026-04-25 16:02 | 54.69475 | 23.12542 | 33642 ft | 420 kts | 197° |
| 2026-04-25 16:03 | 54.63662 | 23.11518 | 33643 ft | 419 kts | 197° |
| 2026-04-25 16:03 | 54.57855 | 23.10506 | 33633 ft | 420 kts | 196° |
| 2026-04-25 16:04 | 54.52014 | 23.09500 | 33649 ft | 423 kts | 196° |
| 2026-04-25 16:04 | 54.46149 | 23.08503 | 33642 ft | 424 kts | 196° |
| 2026-04-25 16:05 | 54.40281 | 23.07509 | 33649 ft | 424 kts | 196° |
| 2026-04-25 16:06 | 54.31505 | 23.05821 | 33627 ft | 414 kts | 206° |
| 2026-04-25 16:06 | 54.28938 | 23.03925 | 33669 ft | 396 kts | 220° |
| 2026-04-25 16:06 | 54.26637 | 23.01366 | 33677 ft | 393 kts | 224° |
| 2026-04-25 16:07 | 54.22198 | 22.95991 | 33663 ft | 393 kts | 225° |
| 2026-04-25 16:07 | 54.17738 | 22.90530 | 33664 ft | 391 kts | 224° |
| 2026-04-25 16:08 | 54.13313 | 22.85240 | 33662 ft | 390 kts | 224° |
| 2026-04-25 16:08 | 54.08838 | 22.79983 | 33644 ft | 392 kts | 223° |
| 2026-04-25 16:09 | 54.04300 | 22.74684 | 33662 ft | 398 kts | 223° |
| 2026-04-25 16:09 | 53.99730 | 22.69372 | 33664 ft | 397 kts | 223° |
| 2026-04-25 16:10 | 53.95943 | 22.64974 | 33663 ft | 396 kts | 223° |
| 2026-04-25 16:10 | 53.90623 | 22.58844 | 33674 ft | 395 kts | 223° |
| 2026-04-25 16:11 | 53.86086 | 22.53626 | 33683 ft | 394 kts | 223° |
| 2026-04-25 16:11 | 53.81560 | 22.48402 | 33687 ft | 394 kts | 223° |
| 2026-04-25 16:12 | 53.77029 | 22.43174 | 33686 ft | 395 kts | 223° |
| 2026-04-25 16:12 | 53.72486 | 22.37949 | 33687 ft | 395 kts | 223° |
| 2026-04-25 16:13 | 53.67932 | 22.32729 | 33639 ft | 396 kts | 223° |
| 2026-04-25 16:13 | 53.63369 | 22.27503 | 33681 ft | 398 kts | 223° |
| 2026-04-25 16:14 | 53.58767 | 22.22270 | 33695 ft | 400 kts | 222° |
| 2026-04-25 16:14 | 53.54148 | 22.17065 | 33693 ft | 399 kts | 222° |
| 2026-04-25 16:15 | 53.49576 | 22.11906 | 33696 ft | 398 kts | 223° |
| 2026-04-25 16:15 | 53.44998 | 22.06731 | 33664 ft | 396 kts | 222° |
| 2026-04-25 16:16 | 53.40409 | 22.01534 | 33701 ft | 400 kts | 222° |
| 2026-04-25 16:16 | 53.35784 | 21.96327 | 33703 ft | 401 kts | 222° |
| 2026-04-25 16:17 | 53.31145 | 21.91128 | 33704 ft | 401 kts | 222° |
| 2026-04-25 16:17 | 53.26516 | 21.85951 | 33705 ft | 400 kts | 222° |
| 2026-04-25 16:18 | 53.21917 | 21.80776 | 33684 ft | 398 kts | 221° |
| 2026-04-25 16:18 | 53.17300 | 21.75592 | 33714 ft | 401 kts | 221° |
| 2026-04-25 16:19 | 53.12700 | 21.70315 | 33728 ft | 401 kts | 223° |
| 2026-04-25 16:19 | 53.08189 | 21.64850 | 33729 ft | 400 kts | 224° |
| 2026-04-25 16:20 | 53.01505 | 21.56619 | 33695 ft | 397 kts | 224° |
| 2026-04-25 16:21 | 52.94817 | 21.48432 | 33733 ft | 402 kts | 224° |
| 2026-04-25 16:21 | 52.90291 | 21.42937 | 33740 ft | 403 kts | 223° |
| 2026-04-25 16:22 | 52.85767 | 21.37462 | 33742 ft | 402 kts | 223° |
| 2026-04-25 16:22 | 52.81253 | 21.32009 | 33709 ft | 401 kts | 223° |
| 2026-04-25 16:23 | 52.76734 | 21.26596 | 33740 ft | 403 kts | 223° |
| 2026-04-25 16:23 | 52.72180 | 21.21158 | 33754 ft | 404 kts | 223° |
| 2026-04-25 16:24 | 52.67620 | 21.15709 | 33758 ft | 405 kts | 223° |
| 2026-04-25 16:24 | 52.63059 | 21.10262 | 33763 ft | 405 kts | 223° |
| 2026-04-25 16:25 | 52.58508 | 21.04839 | 33741 ft | 403 kts | 223° |
| 2026-04-25 16:25 | 52.53976 | 20.99444 | 33765 ft | 406 kts | 223° |
| 2026-04-25 16:26 | 52.49386 | 20.93998 | 33771 ft | 408 kts | 223° |
| 2026-04-25 16:26 | 52.44741 | 20.88526 | 33768 ft | 408 kts | 223° |
| 2026-04-25 16:27 | 52.40149 | 20.83162 | 33771 ft | 407 kts | 223° |
| 2026-04-25 16:27 | 52.35544 | 20.77761 | 33764 ft | 409 kts | 223° |
| 2026-04-25 16:28 | 52.31645 | 20.73187 | 33773 ft | 413 kts | 222° |
| 2026-04-25 16:28 | 52.26969 | 20.67729 | 33780 ft | 412 kts | 222° |
| 2026-04-25 16:29 | 52.22319 | 20.62316 | 33795 ft | 409 kts | 223° |
| 2026-04-25 16:29 | 52.17724 | 20.56964 | 33756 ft | 408 kts | 222° |
| 2026-04-25 16:30 | 52.13079 | 20.51550 | 33801 ft | 414 kts | 222° |
| 2026-04-25 16:30 | 52.08351 | 20.46120 | 33807 ft | 417 kts | 222° |
| 2026-04-25 16:31 | 52.03620 | 20.40707 | 33808 ft | 415 kts | 222° |
| 2026-04-25 16:31 | 51.98913 | 20.35309 | 33808 ft | 413 kts | 222° |
| 2026-04-25 16:32 | 51.94229 | 20.29935 | 33808 ft | 412 kts | 222° |
| 2026-04-25 16:32 | 51.89556 | 20.24582 | 33814 ft | 411 kts | 222° |
| 2026-04-25 16:33 | 51.84874 | 20.19228 | 33816 ft | 413 kts | 222° |
| 2026-04-25 16:33 | 51.80171 | 20.13868 | 33825 ft | 414 kts | 222° |
| 2026-04-25 16:34 | 51.75473 | 20.08566 | 33823 ft | 415 kts | 221° |
| 2026-04-25 16:34 | 51.70745 | 20.03253 | 33828 ft | 413 kts | 221° |
| 2026-04-25 16:35 | 51.66037 | 19.97953 | 33826 ft | 412 kts | 221° |
| 2026-04-25 16:35 | 51.61347 | 19.92670 | 33829 ft | 412 kts | 222° |
| 2026-04-25 16:36 | 51.56644 | 19.87383 | 33830 ft | 413 kts | 222° |
| 2026-04-25 16:36 | 51.51928 | 19.82089 | 33825 ft | 414 kts | 221° |
| 2026-04-25 16:37 | 51.47183 | 19.76782 | 33836 ft | 417 kts | 221° |
| 2026-04-25 16:37 | 51.42445 | 19.71529 | 33845 ft | 416 kts | 221° |
| 2026-04-25 16:38 | 51.37688 | 19.66288 | 33847 ft | 414 kts | 221° |
| 2026-04-25 16:38 | 51.32948 | 19.61054 | 33823 ft | 413 kts | 221° |
| 2026-04-25 16:39 | 51.28234 | 19.55843 | 33847 ft | 412 kts | 221° |
| 2026-04-25 16:39 | 51.23514 | 19.50629 | 33854 ft | 413 kts | 221° |
| 2026-04-25 16:40 | 51.18775 | 19.45411 | 33862 ft | 414 kts | 221° |
| 2026-04-25 16:40 | 51.14020 | 19.40195 | 33860 ft | 415 kts | 221° |
| 2026-04-25 16:41 | 51.09262 | 19.35008 | 33856 ft | 413 kts | 221° |
| 2026-04-25 16:41 | 51.02192 | 19.27349 | 33866 ft | 411 kts | 221° |
| 2026-04-25 16:42 | 50.97444 | 19.22193 | 33876 ft | 412 kts | 221° |
| 2026-04-25 16:42 | 50.92742 | 19.17091 | 33837 ft | 413 kts | 221° |
| 2026-04-25 16:43 | 50.87999 | 19.11965 | 33865 ft | 413 kts | 221° |
| 2026-04-25 16:43 | 50.83224 | 19.06810 | 33873 ft | 413 kts | 221° |
| 2026-04-25 16:44 | 50.78503 | 19.01727 | 33884 ft | 414 kts | 221° |
| 2026-04-25 16:44 | 50.73734 | 18.96625 | 33886 ft | 414 kts | 221° |
| 2026-04-25 16:45 | 50.68951 | 18.91546 | 33877 ft | 414 kts | 221° |
| 2026-04-25 16:45 | 50.64172 | 18.86458 | 33886 ft | 415 kts | 221° |
| 2026-04-25 16:46 | 50.59387 | 18.81360 | 33883 ft | 415 kts | 221° |
| 2026-04-25 16:46 | 50.55410 | 18.77132 | 33885 ft | 415 kts | 221° |
| 2026-04-25 16:47 | 50.49820 | 18.71205 | 33881 ft | 414 kts | 221° |
| 2026-04-25 16:47 | 50.45041 | 18.66149 | 33902 ft | 415 kts | 221° |
| 2026-04-25 16:48 | 50.40236 | 18.61093 | 33895 ft | 416 kts | 220° |
| 2026-04-25 16:48 | 50.35445 | 18.56091 | 33902 ft | 417 kts | 220° |
| 2026-04-25 16:49 | 50.30614 | 18.51041 | 33874 ft | 417 kts | 220° |
| 2026-04-25 16:49 | 50.25794 | 18.45994 | 33898 ft | 417 kts | 220° |
| 2026-04-25 16:50 | 50.20958 | 18.40949 | 33905 ft | 418 kts | 220° |
| 2026-04-25 16:50 | 50.16119 | 18.35912 | 33908 ft | 418 kts | 220° |
| 2026-04-25 16:51 | 50.11273 | 18.30878 | 33883 ft | 419 kts | 220° |
| 2026-04-25 16:51 | 50.07280 | 18.26716 | 33906 ft | 418 kts | 221° |
| 2026-04-25 16:52 | 50.01690 | 18.20690 | 33912 ft | 418 kts | 221° |
| 2026-04-25 16:52 | 49.97048 | 18.15284 | 33916 ft | 415 kts | 225° |
| 2026-04-25 16:53 | 49.90460 | 18.06604 | 33908 ft | 414 kts | 227° |
| 2026-04-25 16:54 | 49.86146 | 18.00782 | 33928 ft | 414 kts | 227° |
| 2026-04-25 16:54 | 49.81776 | 17.94942 | 33930 ft | 415 kts | 226° |
| 2026-04-25 16:55 | 49.77383 | 17.89124 | 33935 ft | 416 kts | 226° |
| 2026-04-25 16:55 | 49.72984 | 17.83316 | 33936 ft | 416 kts | 226° |
| 2026-04-25 16:56 | 49.68579 | 17.77508 | 33927 ft | 416 kts | 226° |
| 2026-04-25 16:56 | 49.64157 | 17.71721 | 33937 ft | 417 kts | 226° |
| 2026-04-25 16:57 | 49.59722 | 17.65951 | 33934 ft | 417 kts | 226° |
| 2026-04-25 16:57 | 49.55214 | 17.60060 | 32214 ft | 431 kts | 226° |
| 2026-04-25 16:57 | 49.52924 | 17.57073 | 31234 ft | 431 kts | 226° |
| 2026-04-25 16:58 | 49.50642 | 17.54110 | 30440 ft | 427 kts | 226° |
| 2026-04-25 16:58 | 49.48382 | 17.51180 | 29639 ft | 422 kts | 226° |
| 2026-04-25 16:58 | 49.46156 | 17.48293 | 28829 ft | 415 kts | 226° |
| 2026-04-25 16:58 | 49.43973 | 17.45464 | 28266 ft | 405 kts | 226° |
| 2026-04-25 16:59 | 49.41835 | 17.42693 | 27528 ft | 400 kts | 227° |
| 2026-04-25 16:59 | 49.39747 | 17.39991 | 26716 ft | 382 kts | 227° |
| 2026-04-25 16:59 | 49.37763 | 17.37436 | 25934 ft | 363 kts | 227° |
| 2026-04-25 16:59 | 49.35871 | 17.35001 | 25179 ft | 347 kts | 227° |
| 2026-04-25 17:00 | 49.34055 | 17.32671 | 24448 ft | 334 kts | 228° |
| 2026-04-25 17:00 | 49.32300 | 17.30422 | 23708 ft | 324 kts | 228° |
| 2026-04-25 17:00 | 49.30604 | 17.28247 | 23032 ft | 312 kts | 228° |
| 2026-04-25 17:00 | 49.28983 | 17.26166 | 22488 ft | 297 kts | 228° |
| 2026-04-25 17:01 | 49.27424 | 17.24158 | 21957 ft | 292 kts | 228° |
| 2026-04-25 17:01 | 49.25870 | 17.22136 | 21452 ft | 294 kts | 228° |
| 2026-04-25 17:01 | 49.24305 | 17.20100 | 20947 ft | 296 kts | 228° |
| 2026-04-25 17:01 | 49.22746 | 17.18077 | 20445 ft | 299 kts | 227° |
| 2026-04-25 17:02 | 49.21152 | 17.16020 | 19964 ft | 301 kts | 227° |
| 2026-04-25 17:02 | 49.19545 | 17.13956 | 19469 ft | 302 kts | 227° |
| 2026-04-25 17:02 | 49.17936 | 17.11898 | 18969 ft | 298 kts | 226° |
| 2026-04-25 17:02 | 49.16376 | 17.09918 | 18469 ft | 286 kts | 226° |
| 2026-04-25 17:03 | 49.14863 | 17.08003 | 17972 ft | 279 kts | 226° |
| 2026-04-25 17:03 | 49.13382 | 17.06124 | 17468 ft | 274 kts | 226° |
| 2026-04-25 17:03 | 49.11923 | 17.04267 | 16989 ft | 271 kts | 226° |
| 2026-04-25 17:03 | 49.10469 | 17.02439 | 16528 ft | 272 kts | 222° |
| 2026-04-25 17:04 | 49.08793 | 17.01025 | 16074 ft | 280 kts | 205° |
| 2026-04-25 17:04 | 49.06871 | 17.00382 | 15632 ft | 288 kts | 189° |
| 2026-04-25 17:04 | 49.04853 | 17.00550 | 15193 ft | 294 kts | 173° |
| 2026-04-25 17:04 | 49.02876 | 17.01415 | 14764 ft | 295 kts | 171° |
| 2026-04-25 17:05 | 49.00911 | 17.01457 | 14341 ft | 276 kts | 203° |
| 2026-04-25 17:05 | 48.97462 | 16.99197 | 13489 ft | 266 kts | 217° |
| 2026-04-25 17:05 | 48.95901 | 16.97717 | 13028 ft | 263 kts | 219° |
| 2026-04-25 17:06 | 48.94342 | 16.96200 | 12585 ft | 269 kts | 218° |
| 2026-04-25 17:06 | 48.92762 | 16.94712 | 12218 ft | 270 kts | 217° |
| 2026-04-25 17:06 | 48.91163 | 16.93283 | 12056 ft | 263 kts | 216° |
| 2026-04-25 17:06 | 48.89579 | 16.91927 | 11980 ft | 259 kts | 215° |
| 2026-04-25 17:07 | 48.88005 | 16.90616 | 11941 ft | 257 kts | 214° |
| 2026-04-25 17:07 | 48.86421 | 16.89313 | 11938 ft | 260 kts | 214° |
| 2026-04-25 17:07 | 48.84830 | 16.88007 | 11935 ft | 261 kts | 214° |
| 2026-04-25 17:07 | 48.83233 | 16.86693 | 11934 ft | 261 kts | 214° |
| 2026-04-25 17:08 | 48.81635 | 16.85379 | 11934 ft | 262 kts | 214° |
| 2026-04-25 17:08 | 48.80035 | 16.84064 | 11933 ft | 262 kts | 214° |
| 2026-04-25 17:08 | 48.78432 | 16.82745 | 11932 ft | 262 kts | 214° |
| 2026-04-25 17:08 | 48.76832 | 16.81425 | 11929 ft | 262 kts | 214° |
| 2026-04-25 17:09 | 48.75233 | 16.80104 | 11927 ft | 262 kts | 214° |
| 2026-04-25 17:09 | 48.73635 | 16.78782 | 11922 ft | 261 kts | 214° |
| 2026-04-25 17:09 | 48.72039 | 16.77458 | 11925 ft | 262 kts | 214° |
| 2026-04-25 17:09 | 48.70438 | 16.76133 | 11925 ft | 262 kts | 214° |
| 2026-04-25 17:10 | 48.68794 | 16.74945 | 11935 ft | 266 kts | 203° |
| 2026-04-25 17:10 | 48.66955 | 16.74447 | 11937 ft | 274 kts | 186° |
| 2026-04-25 17:10 | 48.65008 | 16.74699 | 11578 ft | 289 kts | 175° |
| 2026-04-25 17:10 | 48.62999 | 16.75196 | 11048 ft | 296 kts | 176° |
| 2026-04-25 17:11 | 48.60940 | 16.75578 | 10524 ft | 300 kts | 179° |
| 2026-04-25 17:11 | 48.58841 | 16.75812 | 10015 ft | 305 kts | 181° |
| 2026-04-25 17:11 | 48.56713 | 16.75945 | 9447 ft | 308 kts | 182° |
| 2026-04-25 17:11 | 48.54559 | 16.76019 | 8875 ft | 311 kts | 183° |
| 2026-04-25 17:12 | 48.52397 | 16.76063 | 8306 ft | 306 kts | 183° |
| 2026-04-25 17:12 | 48.50315 | 16.76102 | 7721 ft | 293 kts | 183° |
| 2026-04-25 17:12 | 48.48336 | 16.76147 | 7333 ft | 276 kts | 183° |
| 2026-04-25 17:12 | 48.46463 | 16.76199 | 6950 ft | 263 kts | 183° |
| 2026-04-25 17:13 | 48.44660 | 16.76254 | 6581 ft | 256 kts | 183° |
| 2026-04-25 17:13 | 48.44082 | 16.76271 | 6454 ft | 255 kts | 183° |
| 2026-04-25 17:13 | 48.41136 | 16.76348 | 5830 ft | 251 kts | 183° |
| 2026-04-25 17:13 | 48.39394 | 16.76395 | 5450 ft | 250 kts | 182° |
| 2026-04-25 17:14 | 48.37660 | 16.76449 | 5074 ft | 248 kts | 182° |
| 2026-04-25 17:14 | 48.36526 | 16.76486 | 4911 ft | 245 kts | 182° |
| 2026-04-25 17:14 | 48.34821 | 16.76543 | 4660 ft | 245 kts | 182° |
| 2026-04-25 17:14 | 48.33107 | 16.76591 | 4428 ft | 249 kts | 182° |
| 2026-04-25 17:15 | 48.31952 | 16.76625 | 4281 ft | 251 kts | 182° |
| 2026-04-25 17:15 | 48.29089 | 16.76715 | 3884 ft | 243 kts | 182° |
| 2026-04-25 17:15 | 48.27415 | 16.76765 | 3631 ft | 239 kts | 181° |
| 2026-04-25 17:15 | 48.26301 | 16.76798 | 3460 ft | 236 kts | 181° |
| 2026-04-25 17:16 | 48.24665 | 16.76859 | 3212 ft | 234 kts | 182° |
| 2026-04-25 17:16 | 48.23060 | 16.76913 | 3078 ft | 227 kts | 181° |
| 2026-04-25 17:16 | 48.21509 | 16.76961 | 3013 ft | 220 kts | 181° |
| 2026-04-25 17:16 | 48.19984 | 16.77013 | 2986 ft | 219 kts | 182° |
| 2026-04-25 17:17 | 48.18466 | 16.77061 | 2978 ft | 217 kts | 182° |
| 2026-04-25 17:17 | 48.16958 | 16.77107 | 2975 ft | 217 kts | 182° |
| 2026-04-25 17:17 | 48.15451 | 16.77156 | 2975 ft | 217 kts | 182° |
| 2026-04-25 17:17 | 48.13938 | 16.77203 | 2978 ft | 218 kts | 182° |
| 2026-04-25 17:18 | 48.12450 | 16.77245 | 2996 ft | 215 kts | 182° |
| 2026-04-25 17:18 | 48.10952 | 16.77284 | 2996 ft | 216 kts | 182° |
| 2026-04-25 17:18 | 48.09449 | 16.77327 | 2989 ft | 217 kts | 182° |
| 2026-04-25 17:18 | 48.07945 | 16.77378 | 2980 ft | 215 kts | 182° |
| 2026-04-25 17:19 | 48.06446 | 16.77423 | 2970 ft | 216 kts | 182° |
| 2026-04-25 17:19 | 48.04935 | 16.77465 | 2971 ft | 219 kts | 182° |
| 2026-04-25 17:19 | 48.03404 | 16.77509 | 2992 ft | 216 kts | 182° |
| 2026-04-25 17:19 | 48.01915 | 16.77562 | 3014 ft | 217 kts | 182° |
| 2026-04-25 17:20 | 48.00413 | 16.77611 | 3000 ft | 213 kts | 183° |
| 2026-04-25 17:20 | 47.98918 | 16.77658 | 2983 ft | 216 kts | 182° |
| 2026-04-25 17:20 | 47.97413 | 16.77700 | 2966 ft | 216 kts | 182° |
| 2026-04-25 17:20 | 47.95959 | 16.77287 | 2945 ft | 211 kts | 216° |
| 2026-04-25 17:21 | 47.95180 | 16.75728 | 2978 ft | 175 kts | 255° |
| 2026-04-25 17:21 | 47.94788 | 16.73978 | 2975 ft | 179 kts | 256° |
| 2026-04-25 17:21 | 47.94392 | 16.72221 | 2969 ft | 181 kts | 256° |
| 2026-04-25 17:21 | 47.94158 | 16.70427 | 2954 ft | 172 kts | 281° |
| 2026-04-25 17:22 | 47.94754 | 16.68920 | 2963 ft | 172 kts | 309° |
| 2026-04-25 17:22 | 47.95242 | 16.67994 | 2944 ft | 171 kts | 307° |
| 2026-04-25 17:22 | 47.96183 | 16.66068 | 2962 ft | 173 kts | 306° |
| 2026-04-25 17:22 | 47.96887 | 16.64599 | 2965 ft | 174 kts | 306° |
| 2026-04-25 17:23 | 47.97820 | 16.63465 | 2797 ft | 180 kts | 340° |
| 2026-04-25 17:23 | 47.99040 | 16.63188 | 2559 ft | 176 kts | 343° |
| 2026-04-25 17:23 | 48.00221 | 16.62755 | 2319 ft | 170 kts | 341° |
| 2026-04-25 17:23 | 48.01274 | 16.62361 | 2089 ft | 143 kts | 339° |
| 2026-04-25 17:24 | 48.02174 | 16.61997 | 1897 ft | 129 kts | 338° |
| 2026-04-25 17:24 | 48.03009 | 16.61654 | 1793 ft | 124 kts | 336° |
| 2026-04-25 17:24 | 48.03880 | 16.61264 | 1768 ft | 145 kts | 336° |
| 2026-04-25 17:24 | 48.04881 | 16.60820 | 1736 ft | 148 kts | 338° |
| 2026-04-25 17:25 | 48.05882 | 16.60391 | 1354 ft | 147 kts | 340° |
| 2026-04-25 17:25 | 48.06839 | 16.59988 | 1025 ft | 141 kts | 340° |
| 2026-04-25 17:25 | 48.07777 | 16.59611 | 832 ft | 139 kts | 339° |
| 2026-04-25 17:25 | 48.08698 | 16.59221 | 667 ft | 135 kts | 337° |
| 2026-04-25 17:26 | 48.09523 | 16.58843 | 617 ft | 99 kts | 344° |
| 2026-04-25 17:26 | 48.09867 | 16.58703 | 623 ft | 28 kts | 345° |
| 2026-04-25 17:26 | 48.09997 | 16.58609 | 610 ft | 18 kts | 318° |
| 2026-04-25 17:26 | 48.10060 | 16.58490 | 611 ft | 10 kts | 300° |
| 2026-04-25 17:27 | 48.10100 | 16.58384 | 623 ft | 13 kts | 302° |
| 2026-04-25 17:27 | 48.10179 | 16.58300 | 624 ft | 16 kts | 343° |
| 2026-04-25 17:27 | 48.10262 | 16.58264 | 615 ft | 11 kts | 343° |
| 2026-04-25 17:27 | 48.10318 | 16.58238 | 621 ft | 14 kts | 343° |
| 2026-04-25 17:28 | 48.10441 | 16.58189 | 619 ft | 12 kts | 343° |
| 2026-04-25 17:28 | 48.10535 | 16.58147 | 618 ft | 16 kts | 343° |
| 2026-04-25 17:28 | 48.10611 | 16.58115 | 614 ft | 8 kts | 345° |
| 2026-04-25 17:28 | 48.10690 | 16.58083 | 616 ft | 15 kts | 345° |
| 2026-04-25 17:29 | 48.10788 | 16.58042 | 618 ft | 11 kts | 343° |
| 2026-04-25 17:29 | 48.10866 | 16.58007 | 612 ft | 12 kts | 343° |
| 2026-04-25 17:29 | 48.10948 | 16.57958 | 617 ft | 13 kts | 320° |
| 2026-04-25 17:29 | 48.11012 | 16.57857 | 617 ft | 14 kts | 314° |
| 2026-04-25 17:30 | 48.11092 | 16.57774 | 619 ft | 14 kts | 343° |
| 2026-04-25 17:30 | 48.11167 | 16.57685 | 620 ft | 15 kts | 299° |
| 2026-04-25 17:30 | 48.11213 | 16.57547 | 613 ft | 15 kts | 296° |
| 2026-04-25 17:30 | 48.11260 | 16.57401 | 620 ft | 16 kts | 295° |
| 2026-04-25 17:31 | 48.11308 | 16.57249 | 614 ft | 16 kts | 296° |
| 2026-04-25 17:31 | 48.11360 | 16.57093 | 619 ft | 17 kts | 296° |
| 2026-04-25 17:31 | 48.11411 | 16.56940 | 617 ft | 15 kts | 299° |
| 2026-04-25 17:31 | 48.11499 | 16.56903 | 608 ft | 15 kts | 20° |
| 2026-04-25 17:32 | 48.11592 | 16.56865 | 608 ft | 15 kts | 307° |
| 2026-04-25 17:32 | 48.11640 | 16.56734 | 613 ft | 12 kts | 295° |
| 2026-04-25 17:32 | 48.11666 | 16.56638 | 614 ft | 6 kts | 268° |
| 2026-04-25 17:32 | 48.11639 | 16.56591 | 618 ft | 7 kts | 208° |
| 2026-04-25 17:33 | 48.11623 | 16.56578 | 618 ft | 0 kts | 207° |